sensor_id;sensor_type;location;lat;lon;timestamp;P1;durP1;ratioP1;P2;durP2;ratioP2
12385;SDS011;6257;57.634;18.310;2023-08-06T00:01:56;6.83;;;5.00;;
12385;SDS011;6257;57.634;18.310;2023-08-06T00:04:23;10.23;;;5.40;;
12385;SDS011;6257;57.634;18.310;2023-08-06T00:06:50;10.40;;;5.30;;
12385;SDS011;6257;57.634;18.310;2023-08-06T00:09:17;7.83;;;5.30;;
12385;SDS011;6257;57.634;18.310;2023-08-06T00:11:44;8.03;;;5.67;;
12385;SDS011;6257;57.634;18.310;2023-08-06T00:14:12;8.37;;;5.20;;
12385;SDS011;6257;57.634;18.310;2023-08-06T00:16:42;8.10;;;4.97;;
12385;SDS011;6257;57.634;18.310;2023-08-06T00:19:09;7.40;;;4.80;;
12385;SDS011;6257;57.634;18.310;2023-08-06T00:21:37;9.73;;;5.10;;
12385;SDS011;6257;57.634;18.310;2023-08-06T00:24:04;10.23;;;5.10;;
12385;SDS011;6257;57.634;18.310;2023-08-06T00:26:31;9.83;;;5.03;;
12385;SDS011;6257;57.634;18.310;2023-08-06T00:28:58;6.67;;;4.63;;
12385;SDS011;6257;57.634;18.310;2023-08-06T00:31:25;8.37;;;4.70;;
12385;SDS011;6257;57.634;18.310;2023-08-06T00:33:53;13.80;;;5.10;;
12385;SDS011;6257;57.634;18.310;2023-08-06T00:36:20;11.23;;;5.40;;
12385;SDS011;6257;57.634;18.310;2023-08-06T00:38:47;7.83;;;5.20;;
12385;SDS011;6257;57.634;18.310;2023-08-06T00:41:14;9.23;;;5.30;;
12385;SDS011;6257;57.634;18.310;2023-08-06T00:43:42;11.57;;;5.50;;
12385;SDS011;6257;57.634;18.310;2023-08-06T00:46:08;8.90;;;4.60;;
12385;SDS011;6257;57.634;18.310;2023-08-06T00:48:36;8.27;;;5.10;;
12385;SDS011;6257;57.634;18.310;2023-08-06T00:51:05;8.17;;;5.00;;
12385;SDS011;6257;57.634;18.310;2023-08-06T00:53:32;11.03;;;5.20;;
12385;SDS011;6257;57.634;18.310;2023-08-06T00:55:59;8.87;;;5.00;;
12385;SDS011;6257;57.634;18.310;2023-08-06T00:58:27;6.87;;;4.50;;
12385;SDS011;6257;57.634;18.310;2023-08-06T01:00:54;5.87;;;4.60;;
12385;SDS011;6257;57.634;18.310;2023-08-06T01:03:22;9.03;;;5.60;;
12385;SDS011;6257;57.634;18.310;2023-08-06T01:05:49;7.73;;;5.30;;
12385;SDS011;6257;57.634;18.310;2023-08-06T01:08:22;7.63;;;4.80;;
12385;SDS011;6257;57.634;18.310;2023-08-06T01:11:00;10.63;;;5.13;;
12385;SDS011;6257;57.634;18.310;2023-08-06T01:13:39;8.33;;;5.03;;
12385;SDS011;6257;57.634;18.310;2023-08-06T01:16:09;7.03;;;5.17;;
12385;SDS011;6257;57.634;18.310;2023-08-06T01:18:37;9.63;;;5.07;;
12385;SDS011;6257;57.634;18.310;2023-08-06T01:21:08;6.00;;;4.73;;
12385;SDS011;6257;57.634;18.310;2023-08-06T01:23:35;8.80;;;5.40;;
12385;SDS011;6257;57.634;18.310;2023-08-06T01:26:03;8.87;;;5.20;;
12385;SDS011;6257;57.634;18.310;2023-08-06T01:28:40;9.10;;;5.20;;
12385;SDS011;6257;57.634;18.310;2023-08-06T01:31:10;8.33;;;5.27;;
12385;SDS011;6257;57.634;18.310;2023-08-06T01:33:45;11.70;;;5.37;;
12385;SDS011;6257;57.634;18.310;2023-08-06T01:36:15;8.70;;;4.90;;
12385;SDS011;6257;57.634;18.310;2023-08-06T01:38:43;7.97;;;5.00;;
12385;SDS011;6257;57.634;18.310;2023-08-06T01:41:11;7.17;;;4.93;;
12385;SDS011;6257;57.634;18.310;2023-08-06T01:43:38;9.53;;;5.10;;
12385;SDS011;6257;57.634;18.310;2023-08-06T01:46:05;8.53;;;4.90;;
12385;SDS011;6257;57.634;18.310;2023-08-06T01:48:32;7.87;;;4.90;;
12385;SDS011;6257;57.634;18.310;2023-08-06T01:50:59;8.87;;;5.23;;
12385;SDS011;6257;57.634;18.310;2023-08-06T01:53:27;10.07;;;4.90;;
12385;SDS011;6257;57.634;18.310;2023-08-06T01:55:54;13.90;;;5.97;;
12385;SDS011;6257;57.634;18.310;2023-08-06T01:58:21;11.47;;;5.00;;
12385;SDS011;6257;57.634;18.310;2023-08-06T02:00:48;10.90;;;5.77;;
12385;SDS011;6257;57.634;18.310;2023-08-06T02:03:15;8.70;;;4.93;;
12385;SDS011;6257;57.634;18.310;2023-08-06T02:05:42;9.10;;;5.03;;
12385;SDS011;6257;57.634;18.310;2023-08-06T02:08:10;7.13;;;5.70;;
12385;SDS011;6257;57.634;18.310;2023-08-06T02:10:39;10.13;;;5.13;;
12385;SDS011;6257;57.634;18.310;2023-08-06T02:13:06;7.17;;;5.10;;
12385;SDS011;6257;57.634;18.310;2023-08-06T02:15:33;7.47;;;5.17;;
12385;SDS011;6257;57.634;18.310;2023-08-06T02:18:00;11.63;;;5.37;;
12385;SDS011;6257;57.634;18.310;2023-08-06T02:20:27;8.60;;;5.00;;
12385;SDS011;6257;57.634;18.310;2023-08-06T02:22:54;6.90;;;5.07;;
12385;SDS011;6257;57.634;18.310;2023-08-06T02:25:21;7.93;;;4.77;;
12385;SDS011;6257;57.634;18.310;2023-08-06T02:27:50;8.57;;;5.03;;
12385;SDS011;6257;57.634;18.310;2023-08-06T02:30:17;9.33;;;5.00;;
12385;SDS011;6257;57.634;18.310;2023-08-06T02:32:44;8.50;;;5.37;;
12385;SDS011;6257;57.634;18.310;2023-08-06T02:35:11;9.90;;;5.23;;
12385;SDS011;6257;57.634;18.310;2023-08-06T02:37:38;8.27;;;5.13;;
12385;SDS011;6257;57.634;18.310;2023-08-06T02:40:06;6.57;;;5.17;;
12385;SDS011;6257;57.634;18.310;2023-08-06T02:42:33;9.20;;;5.03;;
12385;SDS011;6257;57.634;18.310;2023-08-06T02:45:02;9.33;;;5.37;;
12385;SDS011;6257;57.634;18.310;2023-08-06T02:47:30;8.47;;;5.37;;
12385;SDS011;6257;57.634;18.310;2023-08-06T02:49:57;8.63;;;5.67;;
12385;SDS011;6257;57.634;18.310;2023-08-06T02:52:24;9.13;;;5.50;;
12385;SDS011;6257;57.634;18.310;2023-08-06T02:54:51;8.27;;;5.10;;
12385;SDS011;6257;57.634;18.310;2023-08-06T02:57:18;9.30;;;5.50;;
12385;SDS011;6257;57.634;18.310;2023-08-06T02:59:45;10.53;;;5.40;;
12385;SDS011;6257;57.634;18.310;2023-08-06T03:02:14;9.53;;;4.97;;
12385;SDS011;6257;57.634;18.310;2023-08-06T03:04:41;11.10;;;5.07;;
12385;SDS011;6257;57.634;18.310;2023-08-06T03:07:08;10.53;;;4.80;;
12385;SDS011;6257;57.634;18.310;2023-08-06T03:09:35;9.77;;;4.93;;
12385;SDS011;6257;57.634;18.310;2023-08-06T03:12:02;7.57;;;5.10;;
12385;SDS011;6257;57.634;18.310;2023-08-06T03:14:29;9.17;;;5.07;;
12385;SDS011;6257;57.634;18.310;2023-08-06T03:16:56;7.60;;;5.10;;
12385;SDS011;6257;57.634;18.310;2023-08-06T03:19:25;10.40;;;4.67;;
12385;SDS011;6257;57.634;18.310;2023-08-06T03:21:52;7.00;;;4.90;;
12385;SDS011;6257;57.634;18.310;2023-08-06T03:24:19;9.20;;;5.00;;
12385;SDS011;6257;57.634;18.310;2023-08-06T03:26:46;9.97;;;5.20;;
12385;SDS011;6257;57.634;18.310;2023-08-06T03:29:13;7.43;;;5.20;;
12385;SDS011;6257;57.634;18.310;2023-08-06T03:31:40;7.57;;;5.50;;
12385;SDS011;6257;57.634;18.310;2023-08-06T03:34:07;9.30;;;5.77;;
12385;SDS011;6257;57.634;18.310;2023-08-06T03:36:36;10.70;;;5.93;;
12385;SDS011;6257;57.634;18.310;2023-08-06T03:39:03;10.63;;;7.07;;
12385;SDS011;6257;57.634;18.310;2023-08-06T03:41:30;12.63;;;7.83;;
12385;SDS011;6257;57.634;18.310;2023-08-06T03:43:57;11.30;;;7.90;;
12385;SDS011;6257;57.634;18.310;2023-08-06T03:46:25;11.77;;;7.83;;
12385;SDS011;6257;57.634;18.310;2023-08-06T03:48:52;11.73;;;6.90;;
12385;SDS011;6257;57.634;18.310;2023-08-06T03:51:19;11.30;;;7.33;;
12385;SDS011;6257;57.634;18.310;2023-08-06T03:53:48;8.63;;;6.10;;
12385;SDS011;6257;57.634;18.310;2023-08-06T03:56:15;7.33;;;5.10;;
12385;SDS011;6257;57.634;18.310;2023-08-06T03:58:42;8.37;;;5.37;;
12385;SDS011;6257;57.634;18.310;2023-08-06T04:01:09;10.27;;;5.17;;
12385;SDS011;6257;57.634;18.310;2023-08-06T04:03:36;9.17;;;5.43;;
12385;SDS011;6257;57.634;18.310;2023-08-06T04:06:03;8.17;;;4.40;;
12385;SDS011;6257;57.634;18.310;2023-08-06T04:08:30;7.57;;;4.07;;
12385;SDS011;6257;57.634;18.310;2023-08-06T04:10:59;9.87;;;4.73;;
12385;SDS011;6257;57.634;18.310;2023-08-06T04:13:26;8.77;;;4.20;;
12385;SDS011;6257;57.634;18.310;2023-08-06T04:15:53;9.57;;;4.37;;
12385;SDS011;6257;57.634;18.310;2023-08-06T04:18:20;6.37;;;3.97;;
12385;SDS011;6257;57.634;18.310;2023-08-06T04:20:47;6.87;;;3.80;;
12385;SDS011;6257;57.634;18.310;2023-08-06T04:23:17;8.30;;;4.07;;
12385;SDS011;6257;57.634;18.310;2023-08-06T04:25:44;9.13;;;4.20;;
12385;SDS011;6257;57.634;18.310;2023-08-06T04:28:13;8.33;;;4.23;;
12385;SDS011;6257;57.634;18.310;2023-08-06T04:30:40;7.80;;;4.07;;
12385;SDS011;6257;57.634;18.310;2023-08-06T04:33:07;6.97;;;3.90;;
12385;SDS011;6257;57.634;18.310;2023-08-06T04:35:34;9.33;;;3.53;;
12385;SDS011;6257;57.634;18.310;2023-08-06T04:38:01;6.63;;;3.60;;
12385;SDS011;6257;57.634;18.310;2023-08-06T04:40:28;7.23;;;4.03;;
12385;SDS011;6257;57.634;18.310;2023-08-06T04:42:55;9.23;;;4.17;;
12385;SDS011;6257;57.634;18.310;2023-08-06T04:45:24;6.87;;;4.10;;
12385;SDS011;6257;57.634;18.310;2023-08-06T04:47:51;6.70;;;3.60;;
12385;SDS011;6257;57.634;18.310;2023-08-06T04:50:19;9.67;;;4.13;;
12385;SDS011;6257;57.634;18.310;2023-08-06T04:52:46;9.77;;;4.20;;
12385;SDS011;6257;57.634;18.310;2023-08-06T04:55:13;4.73;;;3.57;;
12385;SDS011;6257;57.634;18.310;2023-08-06T04:57:40;7.90;;;3.93;;
12385;SDS011;6257;57.634;18.310;2023-08-06T05:00:07;6.23;;;3.97;;
12385;SDS011;6257;57.634;18.310;2023-08-06T05:02:36;5.73;;;4.17;;
12385;SDS011;6257;57.634;18.310;2023-08-06T05:05:04;6.63;;;4.00;;
12385;SDS011;6257;57.634;18.310;2023-08-06T05:07:31;7.33;;;3.80;;
12385;SDS011;6257;57.634;18.310;2023-08-06T05:09:58;5.30;;;3.97;;
12385;SDS011;6257;57.634;18.310;2023-08-06T05:12:25;6.83;;;3.43;;
12385;SDS011;6257;57.634;18.310;2023-08-06T05:14:52;7.13;;;4.00;;
12385;SDS011;6257;57.634;18.310;2023-08-06T05:17:19;4.87;;;3.80;;
12385;SDS011;6257;57.634;18.310;2023-08-06T05:19:49;6.53;;;3.70;;
12385;SDS011;6257;57.634;18.310;2023-08-06T05:22:16;7.70;;;4.00;;
12385;SDS011;6257;57.634;18.310;2023-08-06T05:24:44;8.93;;;3.93;;
12385;SDS011;6257;57.634;18.310;2023-08-06T05:27:11;9.00;;;4.13;;
12385;SDS011;6257;57.634;18.310;2023-08-06T05:29:38;8.77;;;3.87;;
12385;SDS011;6257;57.634;18.310;2023-08-06T05:32:05;10.43;;;4.10;;
12385;SDS011;6257;57.634;18.310;2023-08-06T05:34:32;6.87;;;3.80;;
12385;SDS011;6257;57.634;18.310;2023-08-06T05:37:00;5.93;;;4.23;;
12385;SDS011;6257;57.634;18.310;2023-08-06T05:39:28;7.50;;;4.13;;
12385;SDS011;6257;57.634;18.310;2023-08-06T05:41:55;5.53;;;3.67;;
12385;SDS011;6257;57.634;18.310;2023-08-06T05:44:22;9.03;;;4.13;;
12385;SDS011;6257;57.634;18.310;2023-08-06T05:46:50;5.67;;;4.20;;
12385;SDS011;6257;57.634;18.310;2023-08-06T05:49:18;8.63;;;4.33;;
12385;SDS011;6257;57.634;18.310;2023-08-06T05:51:45;12.37;;;4.53;;
12385;SDS011;6257;57.634;18.310;2023-08-06T05:54:13;8.33;;;4.33;;
12385;SDS011;6257;57.634;18.310;2023-08-06T05:56:40;8.20;;;4.40;;
12385;SDS011;6257;57.634;18.310;2023-08-06T05:59:07;7.00;;;4.50;;
12385;SDS011;6257;57.634;18.310;2023-08-06T06:01:34;7.07;;;4.23;;
12385;SDS011;6257;57.634;18.310;2023-08-06T06:04:01;5.20;;;4.40;;
12385;SDS011;6257;57.634;18.310;2023-08-06T06:06:29;8.57;;;4.70;;
12385;SDS011;6257;57.634;18.310;2023-08-06T06:08:56;10.10;;;4.97;;
12385;SDS011;6257;57.634;18.310;2023-08-06T06:11:24;9.20;;;4.23;;
12385;SDS011;6257;57.634;18.310;2023-08-06T06:13:51;7.67;;;4.70;;
12385;SDS011;6257;57.634;18.310;2023-08-06T06:16:18;9.87;;;4.10;;
12385;SDS011;6257;57.634;18.310;2023-08-06T06:18:45;8.50;;;4.50;;
12385;SDS011;6257;57.634;18.310;2023-08-06T06:21:12;6.50;;;3.87;;
12385;SDS011;6257;57.634;18.310;2023-08-06T06:23:39;8.30;;;3.63;;
12385;SDS011;6257;57.634;18.310;2023-08-06T06:26:06;7.00;;;3.57;;
12385;SDS011;6257;57.634;18.310;2023-08-06T06:28:34;5.80;;;3.70;;
12385;SDS011;6257;57.634;18.310;2023-08-06T06:31:01;5.30;;;3.47;;
12385;SDS011;6257;57.634;18.310;2023-08-06T06:33:28;7.77;;;4.10;;
12385;SDS011;6257;57.634;18.310;2023-08-06T06:35:56;9.63;;;3.87;;
12385;SDS011;6257;57.634;18.310;2023-08-06T06:38:22;7.00;;;3.77;;
12385;SDS011;6257;57.634;18.310;2023-08-06T06:40:53;5.57;;;3.20;;
12385;SDS011;6257;57.634;18.310;2023-08-06T06:43:20;5.20;;;3.53;;
12385;SDS011;6257;57.634;18.310;2023-08-06T06:45:51;10.87;;;3.80;;
12385;SDS011;6257;57.634;18.310;2023-08-06T06:48:19;5.53;;;3.37;;
12385;SDS011;6257;57.634;18.310;2023-08-06T06:50:46;8.73;;;3.93;;
12385;SDS011;6257;57.634;18.310;2023-08-06T06:53:13;4.93;;;3.40;;
12385;SDS011;6257;57.634;18.310;2023-08-06T06:55:41;7.30;;;3.70;;
12385;SDS011;6257;57.634;18.310;2023-08-06T06:58:07;5.80;;;3.37;;
12385;SDS011;6257;57.634;18.310;2023-08-06T07:00:35;8.03;;;3.80;;
12385;SDS011;6257;57.634;18.310;2023-08-06T07:03:04;6.17;;;3.77;;
12385;SDS011;6257;57.634;18.310;2023-08-06T07:05:31;6.23;;;4.23;;
12385;SDS011;6257;57.634;18.310;2023-08-06T07:07:59;7.93;;;4.10;;
12385;SDS011;6257;57.634;18.310;2023-08-06T07:10:26;8.77;;;4.60;;
12385;SDS011;6257;57.634;18.310;2023-08-06T07:12:53;6.20;;;4.10;;
12385;SDS011;6257;57.634;18.310;2023-08-06T07:15:20;7.67;;;4.50;;
12385;SDS011;6257;57.634;18.310;2023-08-06T07:17:47;13.83;;;4.60;;
12385;SDS011;6257;57.634;18.310;2023-08-06T07:20:15;12.20;;;4.60;;
12385;SDS011;6257;57.634;18.310;2023-08-06T07:22:43;9.67;;;5.07;;
12385;SDS011;6257;57.634;18.310;2023-08-06T07:25:10;7.10;;;5.47;;
12385;SDS011;6257;57.634;18.310;2023-08-06T07:27:37;8.93;;;5.47;;
12385;SDS011;6257;57.634;18.310;2023-08-06T07:30:05;9.57;;;5.00;;
12385;SDS011;6257;57.634;18.310;2023-08-06T07:32:32;9.00;;;5.27;;
12385;SDS011;6257;57.634;18.310;2023-08-06T07:35:00;7.90;;;5.50;;
12385;SDS011;6257;57.634;18.310;2023-08-06T07:37:29;9.27;;;5.73;;
12385;SDS011;6257;57.634;18.310;2023-08-06T07:39:56;7.40;;;5.37;;
12385;SDS011;6257;57.634;18.310;2023-08-06T07:42:23;9.07;;;5.50;;
12385;SDS011;6257;57.634;18.310;2023-08-06T07:44:51;10.03;;;5.40;;
12385;SDS011;6257;57.634;18.310;2023-08-06T07:47:20;10.33;;;5.77;;
12385;SDS011;6257;57.634;18.310;2023-08-06T07:49:47;8.90;;;5.33;;
12385;SDS011;6257;57.634;18.310;2023-08-06T07:52:14;9.53;;;5.67;;
12385;SDS011;6257;57.634;18.310;2023-08-06T07:54:43;10.27;;;5.97;;
12385;SDS011;6257;57.634;18.310;2023-08-06T07:57:10;8.43;;;5.70;;
12385;SDS011;6257;57.634;18.310;2023-08-06T07:59:38;11.93;;;5.90;;
12385;SDS011;6257;57.634;18.310;2023-08-06T08:02:05;8.67;;;6.17;;
12385;SDS011;6257;57.634;18.310;2023-08-06T08:04:32;9.97;;;5.97;;
12385;SDS011;6257;57.634;18.310;2023-08-06T08:06:59;10.43;;;5.87;;
12385;SDS011;6257;57.634;18.310;2023-08-06T08:09:27;9.40;;;6.90;;
12385;SDS011;6257;57.634;18.310;2023-08-06T08:11:55;10.47;;;6.20;;
12385;SDS011;6257;57.634;18.310;2023-08-06T08:14:24;10.93;;;6.33;;
12385;SDS011;6257;57.634;18.310;2023-08-06T08:16:51;11.63;;;6.63;;
12385;SDS011;6257;57.634;18.310;2023-08-06T08:19:18;10.17;;;6.57;;
12385;SDS011;6257;57.634;18.310;2023-08-06T08:21:45;10.47;;;6.43;;
12385;SDS011;6257;57.634;18.310;2023-08-06T08:24:12;12.17;;;6.67;;
12385;SDS011;6257;57.634;18.310;2023-08-06T08:26:39;13.97;;;6.50;;
12385;SDS011;6257;57.634;18.310;2023-08-06T08:29:07;10.57;;;7.17;;
12385;SDS011;6257;57.634;18.310;2023-08-06T08:31:34;11.63;;;7.73;;
12385;SDS011;6257;57.634;18.310;2023-08-06T08:34:04;13.27;;;7.47;;
12385;SDS011;6257;57.634;18.310;2023-08-06T08:36:31;15.07;;;8.27;;
12385;SDS011;6257;57.634;18.310;2023-08-06T08:38:58;12.23;;;7.70;;
12385;SDS011;6257;57.634;18.310;2023-08-06T08:41:27;11.27;;;7.00;;
12385;SDS011;6257;57.634;18.310;2023-08-06T08:43:54;11.03;;;7.30;;
12385;SDS011;6257;57.634;18.310;2023-08-06T08:46:24;9.97;;;7.27;;
12385;SDS011;6257;57.634;18.310;2023-08-06T08:48:54;12.80;;;8.00;;
12385;SDS011;6257;57.634;18.310;2023-08-06T08:51:23;13.50;;;7.53;;
12385;SDS011;6257;57.634;18.310;2023-08-06T08:53:50;11.03;;;8.10;;
12385;SDS011;6257;57.634;18.310;2023-08-06T08:56:21;12.27;;;7.90;;
12385;SDS011;6257;57.634;18.310;2023-08-06T08:58:48;11.20;;;7.83;;
12385;SDS011;6257;57.634;18.310;2023-08-06T09:01:16;10.37;;;8.60;;
12385;SDS011;6257;57.634;18.310;2023-08-06T09:03:45;12.00;;;7.77;;
12385;SDS011;6257;57.634;18.310;2023-08-06T09:06:13;11.33;;;8.13;;
12385;SDS011;6257;57.634;18.310;2023-08-06T09:08:47;11.50;;;8.47;;
12385;SDS011;6257;57.634;18.310;2023-08-06T09:11:17;12.27;;;8.57;;
12385;SDS011;6257;57.634;18.310;2023-08-06T09:13:47;11.10;;;8.53;;
12385;SDS011;6257;57.634;18.310;2023-08-06T09:16:14;17.50;;;9.23;;
12385;SDS011;6257;57.634;18.310;2023-08-06T09:18:41;11.77;;;8.40;;
12385;SDS011;6257;57.634;18.310;2023-08-06T09:21:14;10.30;;;8.13;;
12385;SDS011;6257;57.634;18.310;2023-08-06T09:23:42;12.13;;;9.00;;
12385;SDS011;6257;57.634;18.310;2023-08-06T09:26:11;13.43;;;8.60;;
12385;SDS011;6257;57.634;18.310;2023-08-06T09:28:38;12.63;;;8.43;;
12385;SDS011;6257;57.634;18.310;2023-08-06T09:31:08;12.47;;;8.40;;
12385;SDS011;6257;57.634;18.310;2023-08-06T09:33:36;11.40;;;8.70;;
12385;SDS011;6257;57.634;18.310;2023-08-06T09:36:07;11.10;;;9.60;;
12385;SDS011;6257;57.634;18.310;2023-08-06T09:38:38;10.70;;;8.03;;
12385;SDS011;6257;57.634;18.310;2023-08-06T09:41:06;11.03;;;8.67;;
12385;SDS011;6257;57.634;18.310;2023-08-06T09:43:40;13.13;;;8.70;;
12385;SDS011;6257;57.634;18.310;2023-08-06T09:46:11;10.50;;;8.63;;
12385;SDS011;6257;57.634;18.310;2023-08-06T09:48:41;12.17;;;8.47;;
12385;SDS011;6257;57.634;18.310;2023-08-06T09:51:11;10.93;;;8.80;;
12385;SDS011;6257;57.634;18.310;2023-08-06T09:53:41;9.83;;;8.40;;
12385;SDS011;6257;57.634;18.310;2023-08-06T09:56:09;12.37;;;8.90;;
12385;SDS011;6257;57.634;18.310;2023-08-06T09:58:39;10.53;;;8.53;;
12385;SDS011;6257;57.634;18.310;2023-08-06T10:01:06;12.97;;;8.70;;
12385;SDS011;6257;57.634;18.310;2023-08-06T10:03:34;9.90;;;8.90;;
12385;SDS011;6257;57.634;18.310;2023-08-06T10:06:03;10.53;;;8.47;;
12385;SDS011;6257;57.634;18.310;2023-08-06T10:08:33;12.10;;;8.60;;
12385;SDS011;6257;57.634;18.310;2023-08-06T10:11:02;13.30;;;9.47;;
12385;SDS011;6257;57.634;18.310;2023-08-06T10:13:30;10.53;;;8.70;;
12385;SDS011;6257;57.634;18.310;2023-08-06T10:16:00;13.03;;;8.50;;
12385;SDS011;6257;57.634;18.310;2023-08-06T10:18:28;10.47;;;8.70;;
12385;SDS011;6257;57.634;18.310;2023-08-06T10:20:56;10.53;;;8.17;;
12385;SDS011;6257;57.634;18.310;2023-08-06T10:23:31;12.13;;;8.57;;
12385;SDS011;6257;57.634;18.310;2023-08-06T10:26:02;12.33;;;8.53;;
12385;SDS011;6257;57.634;18.310;2023-08-06T10:28:33;11.30;;;8.50;;
12385;SDS011;6257;57.634;18.310;2023-08-06T10:31:01;12.57;;;8.60;;
12385;SDS011;6257;57.634;18.310;2023-08-06T10:33:39;12.23;;;8.90;;
12385;SDS011;6257;57.634;18.310;2023-08-06T10:36:08;12.47;;;8.93;;
12385;SDS011;6257;57.634;18.310;2023-08-06T10:38:43;18.50;;;9.27;;
12385;SDS011;6257;57.634;18.310;2023-08-06T10:41:27;11.20;;;9.00;;
12385;SDS011;6257;57.634;18.310;2023-08-06T10:44:04;13.10;;;8.70;;
12385;SDS011;6257;57.634;18.310;2023-08-06T10:46:33;11.53;;;8.63;;
12385;SDS011;6257;57.634;18.310;2023-08-06T10:49:00;10.90;;;8.03;;
12385;SDS011;6257;57.634;18.310;2023-08-06T10:51:28;13.40;;;8.93;;
12385;SDS011;6257;57.634;18.310;2023-08-06T10:53:55;10.17;;;7.57;;
12385;SDS011;6257;57.634;18.310;2023-08-06T10:56:25;11.40;;;8.50;;
12385;SDS011;6257;57.634;18.310;2023-08-06T10:58:53;12.53;;;8.60;;
12385;SDS011;6257;57.634;18.310;2023-08-06T11:01:22;13.87;;;8.83;;
12385;SDS011;6257;57.634;18.310;2023-08-06T11:03:49;10.30;;;7.50;;
12385;SDS011;6257;57.634;18.310;2023-08-06T11:06:18;8.73;;;7.80;;
12385;SDS011;6257;57.634;18.310;2023-08-06T11:08:49;10.73;;;7.53;;
12385;SDS011;6257;57.634;18.310;2023-08-06T11:11:18;9.93;;;7.77;;
12385;SDS011;6257;57.634;18.310;2023-08-06T11:13:47;15.27;;;8.40;;
12385;SDS011;6257;57.634;18.310;2023-08-06T11:16:16;9.63;;;7.63;;
12385;SDS011;6257;57.634;18.310;2023-08-06T11:18:45;11.40;;;8.03;;
12385;SDS011;6257;57.634;18.310;2023-08-06T11:21:12;11.67;;;8.07;;
12385;SDS011;6257;57.634;18.310;2023-08-06T11:23:40;9.73;;;7.10;;
12385;SDS011;6257;57.634;18.310;2023-08-06T11:26:07;9.37;;;7.73;;
12385;SDS011;6257;57.634;18.310;2023-08-06T11:28:35;10.53;;;7.40;;
12385;SDS011;6257;57.634;18.310;2023-08-06T11:31:03;10.47;;;7.10;;
12385;SDS011;6257;57.634;18.310;2023-08-06T11:33:30;10.60;;;7.10;;
12385;SDS011;6257;57.634;18.310;2023-08-06T11:35:58;10.23;;;8.03;;
12385;SDS011;6257;57.634;18.310;2023-08-06T11:38:26;10.17;;;7.70;;
12385;SDS011;6257;57.634;18.310;2023-08-06T11:40:55;8.87;;;7.07;;
12385;SDS011;6257;57.634;18.310;2023-08-06T11:43:22;10.03;;;7.20;;
12385;SDS011;6257;57.634;18.310;2023-08-06T11:45:50;10.97;;;8.00;;
12385;SDS011;6257;57.634;18.310;2023-08-06T11:48:21;12.73;;;7.30;;
12385;SDS011;6257;57.634;18.310;2023-08-06T11:50:48;9.73;;;7.43;;
12385;SDS011;6257;57.634;18.310;2023-08-06T11:53:15;12.20;;;7.50;;
12385;SDS011;6257;57.634;18.310;2023-08-06T11:55:42;10.77;;;7.77;;
12385;SDS011;6257;57.634;18.310;2023-08-06T11:58:10;11.60;;;7.23;;
12385;SDS011;6257;57.634;18.310;2023-08-06T12:00:38;9.80;;;6.80;;
12385;SDS011;6257;57.634;18.310;2023-08-06T12:03:05;9.30;;;7.93;;
12385;SDS011;6257;57.634;18.310;2023-08-06T12:05:33;11.00;;;8.00;;
12385;SDS011;6257;57.634;18.310;2023-08-06T12:08:03;9.70;;;7.27;;
12385;SDS011;6257;57.634;18.310;2023-08-06T12:10:30;11.67;;;7.40;;
12385;SDS011;6257;57.634;18.310;2023-08-06T12:12:58;10.47;;;7.83;;
12385;SDS011;6257;57.634;18.310;2023-08-06T12:15:25;9.40;;;6.83;;
12385;SDS011;6257;57.634;18.310;2023-08-06T12:17:53;10.33;;;8.33;;
12385;SDS011;6257;57.634;18.310;2023-08-06T12:20:20;12.73;;;8.00;;
12385;SDS011;6257;57.634;18.310;2023-08-06T12:22:48;9.80;;;7.97;;
12385;SDS011;6257;57.634;18.310;2023-08-06T12:25:15;12.17;;;8.07;;
12385;SDS011;6257;57.634;18.310;2023-08-06T12:27:43;13.13;;;8.50;;
12385;SDS011;6257;57.634;18.310;2023-08-06T12:30:11;8.90;;;8.00;;
12385;SDS011;6257;57.634;18.310;2023-08-06T12:32:38;11.03;;;8.50;;
12385;SDS011;6257;57.634;18.310;2023-08-06T12:35:06;9.77;;;8.77;;
12385;SDS011;6257;57.634;18.310;2023-08-06T12:37:34;12.47;;;8.50;;
12385;SDS011;6257;57.634;18.310;2023-08-06T12:40:03;11.60;;;8.60;;
12385;SDS011;6257;57.634;18.310;2023-08-06T12:42:31;12.87;;;8.70;;
12385;SDS011;6257;57.634;18.310;2023-08-06T12:44:58;11.90;;;9.10;;
12385;SDS011;6257;57.634;18.310;2023-08-06T12:47:25;11.77;;;9.70;;
12385;SDS011;6257;57.634;18.310;2023-08-06T12:49:52;12.53;;;9.17;;
12385;SDS011;6257;57.634;18.310;2023-08-06T12:52:19;11.10;;;9.70;;
12385;SDS011;6257;57.634;18.310;2023-08-06T12:54:47;12.90;;;10.27;;
12385;SDS011;6257;57.634;18.310;2023-08-06T12:57:15;11.97;;;10.07;;
12385;SDS011;6257;57.634;18.310;2023-08-06T12:59:43;13.93;;;10.53;;
12385;SDS011;6257;57.634;18.310;2023-08-06T13:02:10;15.73;;;11.17;;
12385;SDS011;6257;57.634;18.310;2023-08-06T13:04:37;15.97;;;10.17;;
12385;SDS011;6257;57.634;18.310;2023-08-06T13:07:05;17.53;;;11.40;;
12385;SDS011;6257;57.634;18.310;2023-08-06T13:09:32;13.83;;;11.23;;
12385;SDS011;6257;57.634;18.310;2023-08-06T13:11:59;15.40;;;11.70;;
12385;SDS011;6257;57.634;18.310;2023-08-06T13:14:32;19.80;;;12.93;;
12385;SDS011;6257;57.634;18.310;2023-08-06T13:16:59;16.23;;;13.40;;
12385;SDS011;6257;57.634;18.310;2023-08-06T13:19:27;17.37;;;12.80;;
12385;SDS011;6257;57.634;18.310;2023-08-06T13:21:59;16.97;;;13.27;;
12385;SDS011;6257;57.634;18.310;2023-08-06T13:24:31;18.60;;;13.70;;
12385;SDS011;6257;57.634;18.310;2023-08-06T13:26:59;18.60;;;13.33;;
12385;SDS011;6257;57.634;18.310;2023-08-06T13:29:26;16.53;;;14.03;;
12385;SDS011;6257;57.634;18.310;2023-08-06T13:31:55;19.60;;;14.23;;
12385;SDS011;6257;57.634;18.310;2023-08-06T13:34:22;17.90;;;14.33;;
12385;SDS011;6257;57.634;18.310;2023-08-06T13:36:49;18.43;;;13.13;;
12385;SDS011;6257;57.634;18.310;2023-08-06T13:39:17;20.40;;;14.80;;
12385;SDS011;6257;57.634;18.310;2023-08-06T13:41:44;19.43;;;13.13;;
12385;SDS011;6257;57.634;18.310;2023-08-06T13:44:12;19.13;;;13.70;;
12385;SDS011;6257;57.634;18.310;2023-08-06T13:46:40;18.87;;;13.90;;
12385;SDS011;6257;57.634;18.310;2023-08-06T13:49:09;18.17;;;13.67;;
12385;SDS011;6257;57.634;18.310;2023-08-06T13:51:36;20.17;;;14.67;;
12385;SDS011;6257;57.634;18.310;2023-08-06T13:54:04;18.73;;;14.40;;
12385;SDS011;6257;57.634;18.310;2023-08-06T13:56:32;17.30;;;14.93;;
12385;SDS011;6257;57.634;18.310;2023-08-06T13:58:59;20.53;;;15.43;;
12385;SDS011;6257;57.634;18.310;2023-08-06T14:01:26;19.00;;;15.70;;
12385;SDS011;6257;57.634;18.310;2023-08-06T14:03:54;20.97;;;15.40;;
12385;SDS011;6257;57.634;18.310;2023-08-06T14:06:22;21.80;;;16.27;;
12385;SDS011;6257;57.634;18.310;2023-08-06T14:08:49;20.83;;;16.67;;
12385;SDS011;6257;57.634;18.310;2023-08-06T14:11:16;21.70;;;16.90;;
12385;SDS011;6257;57.634;18.310;2023-08-06T14:13:43;21.40;;;17.03;;
12385;SDS011;6257;57.634;18.310;2023-08-06T14:16:10;22.73;;;17.20;;
12385;SDS011;6257;57.634;18.310;2023-08-06T14:18:37;25.97;;;18.10;;
12385;SDS011;6257;57.634;18.310;2023-08-06T14:21:06;23.43;;;17.77;;
12385;SDS011;6257;57.634;18.310;2023-08-06T14:23:35;23.13;;;18.13;;
12385;SDS011;6257;57.634;18.310;2023-08-06T14:26:02;21.70;;;17.87;;
12385;SDS011;6257;57.634;18.310;2023-08-06T14:28:29;19.77;;;16.50;;
12385;SDS011;6257;57.634;18.310;2023-08-06T14:30:56;21.77;;;16.67;;
12385;SDS011;6257;57.634;18.310;2023-08-06T14:33:22;21.00;;;14.73;;
12385;SDS011;6257;57.634;18.310;2023-08-06T14:35:50;22.80;;;16.53;;
12385;SDS011;6257;57.634;18.310;2023-08-06T14:38:17;21.70;;;16.90;;
12385;SDS011;6257;57.634;18.310;2023-08-06T14:40:45;18.83;;;16.03;;
12385;SDS011;6257;57.634;18.310;2023-08-06T14:43:12;20.60;;;17.20;;